createdAt,value
2022-12-28T00:02:25.674Z,14.98
2022-12-28T00:05:27.789Z,15.13
2022-12-28T00:08:29.987Z,15.03
2022-12-28T00:11:32.014Z,15.10
2022-12-28T00:14:34.073Z,15.06
2022-12-28T00:17:36.053Z,15.18
2022-12-28T00:20:38.131Z,15.20
2022-12-28T00:23:40.139Z,15.26
2022-12-28T00:26:42.263Z,15.19
2022-12-28T00:29:44.365Z,15.32
2022-12-28T00:32:46.465Z,15.35
2022-12-28T00:35:56.979Z,15.29
2022-12-28T00:38:59.211Z,15.35
2022-12-28T00:42:01.342Z,15.18
2022-12-28T00:45:06.193Z,15.28
2022-12-28T00:48:08.210Z,15.19
2022-12-28T00:51:19.120Z,15.21
2022-12-28T00:54:21.165Z,15.28
2022-12-28T00:57:23.130Z,15.32
2022-12-28T01:00:28.225Z,15.28
2022-12-28T01:03:30.645Z,15.23
2022-12-28T01:06:33.030Z,15.23
2022-12-28T01:09:35.205Z,15.19
2022-12-28T01:12:38.406Z,15.15
2022-12-28T01:15:40.724Z,15.20
2022-12-28T01:18:45.564Z,15.14
2022-12-28T01:21:49.904Z,15.08
2022-12-28T01:24:52.389Z,15.19
2022-12-28T01:27:55.083Z,15.11
2022-12-28T01:30:58.214Z,15.13
2022-12-28T01:34:00.640Z,15.12
2022-12-28T01:37:02.760Z,14.84
2022-12-28T01:40:05.436Z,14.54
2022-12-28T01:43:14.101Z,14.72
2022-12-28T01:46:35.337Z,14.94
2022-12-28T01:49:45.152Z,14.99
2022-12-28T01:52:56.049Z,14.94
2022-12-28T01:55:58.184Z,14.96
2022-12-28T01:59:00.904Z,14.85
2022-12-28T02:02:04.446Z,14.97
2022-12-28T02:05:08.222Z,15.03
2022-12-28T02:08:17.139Z,14.89
2022-12-28T02:11:20.154Z,14.92
2022-12-28T02:14:23.204Z,15.01
2022-12-28T02:17:26.459Z,14.93
2022-12-28T02:20:53.580Z,14.83
2022-12-28T02:24:24.439Z,14.82
2022-12-28T02:27:37.159Z,14.85
2022-12-28T02:30:54.745Z,14.90
2022-12-28T02:34:15.560Z,14.78
2022-12-28T02:37:28.780Z,14.85
2022-12-28T02:40:42.340Z,14.69
2022-12-28T02:43:45.496Z,14.80
2022-12-28T02:47:06.256Z,14.64
2022-12-28T02:50:13.523Z,14.75
2022-12-28T02:53:30.617Z,14.75
2022-12-28T02:56:52.996Z,14.70
2022-12-28T03:00:11.267Z,14.66
2022-12-28T03:03:25.270Z,14.60
2022-12-28T03:07:22.175Z,14.61
2022-12-28T03:10:40.669Z,14.55
2022-12-28T03:13:48.660Z,14.46
2022-12-28T03:17:18.106Z,14.43
2022-12-28T03:20:42.994Z,14.43
2022-12-28T03:24:06.132Z,14.34
2022-12-28T03:27:33.555Z,14.38
2022-12-28T03:30:57.996Z,14.28
2022-12-28T03:34:08.181Z,14.21
2022-12-28T03:38:00.386Z,14.36
2022-12-28T03:41:09.169Z,14.18
2022-12-28T03:44:19.954Z,14.31
2022-12-28T03:47:26.164Z,14.27
2022-12-28T03:50:29.289Z,14.08
2022-12-28T03:53:42.111Z,14.20
2022-12-28T03:56:49.013Z,14.02
2022-12-28T03:59:52.151Z,14.10
2022-12-28T04:02:54.468Z,14.10
2022-12-28T04:05:57.069Z,14.02
2022-12-28T04:09:00.113Z,14.02
2022-12-28T04:12:05.895Z,13.96
2022-12-28T04:15:28.943Z,13.89
2022-12-28T04:18:32.746Z,13.97
2022-12-28T04:21:34.990Z,13.95
2022-12-28T04:24:38.619Z,13.94
2022-12-28T04:27:42.443Z,13.92
2022-12-28T04:31:00.911Z,13.90
2022-12-28T04:34:03.195Z,13.98
2022-12-28T04:37:09.048Z,13.97
2022-12-28T04:40:11.932Z,13.90
2022-12-28T04:43:14.054Z,13.96
2022-12-28T04:46:18.829Z,13.90
2022-12-28T04:49:20.901Z,13.95
2022-12-28T04:52:23.084Z,14.00
2022-12-28T04:55:32.645Z,13.80
2022-12-28T04:58:36.601Z,13.92
2022-12-28T05:01:38.833Z,13.87
2022-12-28T05:04:40.936Z,13.81
2022-12-28T05:07:42.985Z,13.81
2022-12-28T05:10:45.000Z,13.76
2022-12-28T05:13:49.080Z,13.87
2022-12-28T05:16:54.628Z,13.84
2022-12-28T05:19:56.660Z,13.77
2022-12-28T05:22:58.762Z,13.87
2022-12-28T05:26:01.793Z,13.84
2022-12-28T05:29:04.839Z,13.84
2022-12-28T05:32:06.923Z,13.85
2022-12-28T05:35:09.520Z,13.83
2022-12-28T05:38:11.947Z,13.88
2022-12-28T05:41:13.938Z,13.97
2022-12-28T05:44:16.010Z,13.95
2022-12-28T05:47:18.211Z,13.91
2022-12-28T05:50:20.583Z,13.85
2022-12-28T05:53:22.694Z,13.86
2022-12-28T05:56:30.403Z,13.98
2022-12-28T05:59:32.488Z,13.82
2022-12-28T06:02:34.756Z,13.72
2022-12-28T06:05:37.070Z,13.72
2022-12-28T06:08:40.117Z,14.74
2022-12-28T06:11:42.211Z,14.99
2022-12-28T06:14:44.256Z,15.40
2022-12-28T06:17:47.280Z,15.43
2022-12-28T06:20:55.290Z,15.72
2022-12-28T06:24:00.743Z,15.99
2022-12-28T06:27:02.757Z,16.03
2022-12-28T06:30:05.295Z,16.41
2022-12-28T06:33:07.304Z,16.86
2022-12-28T06:36:19.923Z,16.90
2022-12-28T06:39:23.058Z,17.23
2022-12-28T06:42:26.471Z,17.39
2022-12-28T06:45:28.590Z,17.46
2022-12-28T06:48:32.507Z,17.62
2022-12-28T06:51:38.899Z,17.51
2022-12-28T06:54:40.966Z,17.70
2022-12-28T06:57:43.026Z,17.93
2022-12-28T07:00:45.323Z,17.82
2022-12-28T07:03:49.239Z,17.93
2022-12-28T07:06:51.283Z,18.15
2022-12-28T07:09:53.517Z,18.69
2022-12-28T07:12:56.763Z,19.98
2022-12-28T07:16:02.703Z,20.88
2022-12-28T07:19:04.935Z,21.46
2022-12-28T07:22:07.032Z,21.68
2022-12-28T07:25:11.615Z,21.76
2022-12-28T07:28:16.536Z,21.27
2022-12-28T07:31:21.246Z,19.39
2022-12-28T07:34:23.722Z,18.45
2022-12-28T07:37:26.204Z,17.91
2022-12-28T07:40:28.753Z,17.46
2022-12-28T07:43:30.842Z,17.27
2022-12-28T07:46:35.257Z,17.10
2022-12-28T07:49:37.375Z,16.89
2022-12-28T07:52:39.460Z,16.98
2022-12-28T07:55:43.764Z,17.02
2022-12-28T07:58:53.726Z,17.14
2022-12-28T08:01:55.829Z,17.17
2022-12-28T08:04:58.024Z,17.17
2022-12-28T08:08:03.522Z,17.22
2022-12-28T08:11:17.681Z,16.92
2022-12-28T08:14:19.692Z,16.96
2022-12-28T08:17:21.851Z,17.02
2022-12-28T08:20:23.939Z,16.95
2022-12-28T08:23:25.896Z,16.92
2022-12-28T08:26:33.727Z,16.78
2022-12-28T08:29:35.795Z,16.71
2022-12-28T08:32:37.906Z,16.70
2022-12-28T08:35:39.941Z,16.70
2022-12-28T08:38:44.099Z,16.74
2022-12-28T08:41:46.157Z,16.70
2022-12-28T08:44:48.332Z,16.68
2022-12-28T08:47:51.717Z,16.77
2022-12-28T08:50:55.971Z,16.78
2022-12-28T08:53:58.676Z,16.74
2022-12-28T08:57:00.764Z,16.71
2022-12-28T09:00:06.149Z,16.73
2022-12-28T09:03:08.302Z,16.68
2022-12-28T09:06:13.079Z,16.99
2022-12-28T09:09:17.599Z,17.34
2022-12-28T09:12:19.829Z,17.56
2022-12-28T09:15:21.989Z,17.81
2022-12-28T09:18:24.024Z,17.71
2022-12-28T09:21:29.156Z,17.67
2022-12-28T09:24:31.256Z,17.79
2022-12-28T09:27:33.392Z,17.56
2022-12-28T09:30:35.550Z,17.90
2022-12-28T09:37:18.375Z,17.89
2022-12-28T09:40:21.070Z,17.81
2022-12-28T09:43:44.003Z,18.05
2022-12-28T09:46:55.348Z,17.95
2022-12-28T09:50:13.207Z,17.90
2022-12-28T09:53:23.014Z,17.79
2022-12-28T09:56:46.186Z,17.54
2022-12-28T09:59:49.355Z,17.56
2022-12-28T10:03:02.745Z,17.46
2022-12-28T10:06:11.116Z,17.56
2022-12-28T10:09:25.433Z,17.46
2022-12-28T10:12:29.969Z,17.42
2022-12-28T10:15:32.918Z,17.36
2022-12-28T10:18:39.659Z,17.29
2022-12-28T10:21:43.544Z,17.14
2022-12-28T10:24:47.413Z,17.28
2022-12-28T10:27:50.023Z,17.35
2022-12-28T10:31:11.993Z,17.56
2022-12-28T10:34:18.077Z,17.90
2022-12-28T10:37:20.587Z,18.02
2022-12-28T10:40:33.598Z,18.34
2022-12-28T10:43:39.927Z,18.34
2022-12-28T10:46:52.786Z,18.43
2022-12-28T10:50:26.541Z,18.41
2022-12-28T10:53:17.106Z,18.45
2022-12-28T10:56:30.224Z,18.34
2022-12-28T10:59:33.507Z,18.16
2022-12-28T11:02:35.840Z,18.15
2022-12-28T11:05:40.421Z,18.17
2022-12-28T11:08:45.217Z,18.02
2022-12-28T11:11:49.758Z,17.91
2022-12-28T11:14:52.877Z,17.91
2022-12-28T11:18:17.670Z,17.93
2022-12-28T11:21:24.330Z,17.95
2022-12-28T11:24:39.252Z,17.83
2022-12-28T11:27:41.802Z,17.73
2022-12-28T11:30:45.079Z,17.83
2022-12-28T11:33:54.453Z,17.80
2022-12-28T11:36:57.003Z,17.74
2022-12-28T11:39:59.642Z,17.70
2022-12-28T11:43:01.821Z,17.71
2022-12-28T11:46:25.982Z,17.58
2022-12-28T11:49:31.750Z,17.54
2022-12-28T11:52:46.049Z,17.43
2022-12-28T11:55:59.369Z,17.45
2022-12-28T11:59:09.419Z,17.26
2022-12-28T12:02:20.254Z,17.27
2022-12-28T12:05:40.034Z,17.21
2022-12-28T12:08:42.208Z,17.13
2022-12-28T12:11:44.547Z,17.10
2022-12-28T12:14:53.196Z,17.02
2022-12-28T12:18:00.047Z,17.16
2022-12-28T12:21:15.520Z,17.19
2022-12-28T12:24:30.903Z,17.47
2022-12-28T12:27:45.565Z,17.59
2022-12-28T12:30:48.240Z,17.50
2022-12-28T12:33:58.419Z,17.59
2022-12-28T12:37:12.625Z,17.56
2022-12-28T12:40:14.720Z,17.59
2022-12-28T12:43:33.118Z,17.50
2022-12-28T12:47:29.560Z,17.40
2022-12-28T12:51:12.612Z,17.23
2022-12-28T12:54:40.909Z,17.45
2022-12-28T12:58:04.337Z,17.41
2022-12-28T13:01:33.818Z,17.23
2022-12-28T13:05:02.857Z,17.15
2022-12-28T13:08:20.082Z,17.16
2022-12-28T13:11:26.052Z,17.19
2022-12-28T13:14:29.217Z,17.04
2022-12-28T13:17:31.588Z,17.07
2022-12-28T13:20:33.924Z,17.01
2022-12-28T13:23:50.411Z,17.03
2022-12-28T13:27:12.426Z,17.05
2022-12-28T13:30:28.927Z,17.02
2022-12-28T13:34:25.279Z,16.94
2022-12-28T13:37:36.093Z,16.89
2022-12-28T13:40:57.644Z,17.02
2022-12-28T13:44:22.804Z,16.88
2022-12-28T13:47:44.755Z,16.86
2022-12-28T13:51:09.519Z,16.81
2022-12-28T13:54:20.422Z,16.87
2022-12-28T13:57:49.021Z,16.78
2022-12-28T14:01:04.275Z,16.70
2022-12-28T14:07:37.822Z,16.74
2022-12-28T14:10:43.792Z,16.66
2022-12-28T14:13:47.903Z,16.63
2022-12-28T14:17:01.358Z,16.41
2022-12-28T14:20:05.915Z,16.61
2022-12-28T14:23:31.646Z,16.81
2022-12-28T14:26:34.570Z,16.86
2022-12-28T14:29:41.884Z,16.90
2022-12-28T14:32:44.723Z,17.01
2022-12-28T14:36:01.606Z,16.90
2022-12-28T14:39:05.478Z,16.94
2022-12-28T14:42:22.900Z,17.20
2022-12-28T14:49:33.955Z,17.52
2022-12-28T14:52:46.519Z,17.74
2022-12-28T14:56:03.666Z,17.90
2022-12-28T14:59:18.143Z,18.03
2022-12-28T15:00:25.456Z,17.43
2022-12-28T15:02:41.625Z,17.93
2022-12-28T15:05:54.717Z,17.62
2022-12-28T15:09:00.002Z,17.55
2022-12-28T15:12:17.905Z,17.51
2022-12-28T15:15:24.430Z,17.27
2022-12-28T15:18:29.192Z,17.21
2022-12-28T15:21:31.360Z,17.22
2022-12-28T15:24:37.653Z,17.17
2022-12-28T15:27:40.716Z,16.93
2022-12-28T15:30:45.936Z,17.04
2022-12-28T15:33:48.844Z,17.06
2022-12-28T15:36:53.319Z,16.96
2022-12-28T15:39:55.480Z,16.99
2022-12-28T15:42:58.690Z,16.91
2022-12-28T15:46:00.862Z,16.80
2022-12-28T15:49:04.309Z,16.66
2022-12-28T15:52:06.322Z,16.77
2022-12-28T15:55:08.760Z,16.73
2022-12-28T15:58:10.903Z,16.72
2022-12-28T16:01:13.116Z,16.64
2022-12-28T16:04:15.532Z,16.52
2022-12-28T16:07:19.377Z,16.46
2022-12-28T16:10:21.642Z,16.42
2022-12-28T16:13:23.854Z,16.45
2022-12-28T16:16:28.363Z,16.45
2022-12-28T16:19:31.773Z,16.67
2022-12-28T16:22:33.779Z,16.32
2022-12-28T16:25:35.909Z,16.50
2022-12-28T16:28:38.493Z,17.07
2022-12-28T16:31:41.479Z,17.45
2022-12-28T16:34:43.868Z,17.48
2022-12-28T16:37:46.048Z,17.38
2022-12-28T16:40:48.231Z,17.61
2022-12-28T16:43:52.748Z,17.60
2022-12-28T16:46:59.764Z,17.58
2022-12-28T16:50:02.164Z,17.23
2022-12-28T16:53:24.726Z,16.98
2022-12-28T16:56:27.376Z,16.81
2022-12-28T16:59:30.190Z,16.63
2022-12-28T17:02:32.418Z,16.65
2022-12-28T17:05:35.614Z,16.51
2022-12-28T17:08:38.350Z,16.50
2022-12-28T17:11:40.473Z,16.43
2022-12-28T17:14:42.572Z,16.42
2022-12-28T17:17:44.781Z,16.32
2022-12-28T17:20:46.826Z,16.36
2022-12-28T17:23:49.860Z,16.43
2022-12-28T17:26:52.846Z,16.48
2022-12-28T17:29:54.915Z,16.47
2022-12-28T17:32:57.773Z,16.26
2022-12-28T17:36:02.914Z,16.03
2022-12-28T17:39:05.877Z,15.90
2022-12-28T17:42:12.083Z,15.79
2022-12-28T17:45:15.487Z,15.73
2022-12-28T17:48:20.523Z,15.68
2022-12-28T17:51:24.395Z,15.61
2022-12-28T17:54:26.548Z,15.48
2022-12-28T17:57:30.791Z,15.92
2022-12-28T18:00:36.598Z,16.37
2022-12-28T18:03:38.949Z,16.38
2022-12-28T18:06:41.697Z,16.44
2022-12-28T18:09:43.896Z,16.45
2022-12-28T18:12:47.082Z,16.16
2022-12-28T18:15:52.220Z,16.25
2022-12-28T18:18:55.527Z,16.29
2022-12-28T18:21:57.807Z,16.74
2022-12-28T18:25:00.875Z,16.85
2022-12-28T18:28:03.060Z,16.80
2022-12-28T18:31:05.731Z,16.53
2022-12-28T18:34:07.967Z,16.37
2022-12-28T18:37:10.588Z,16.30
2022-12-28T18:40:12.699Z,16.02
2022-12-28T18:43:14.740Z,15.95
2022-12-28T18:46:20.325Z,15.46
2022-12-28T18:49:23.332Z,15.09
2022-12-28T18:52:25.612Z,15.28
2022-12-28T18:55:28.304Z,15.51
2022-12-28T18:58:33.447Z,15.69
2022-12-28T19:05:02.031Z,16.65
2022-12-28T19:08:09.424Z,16.65
2022-12-28T19:11:11.736Z,17.52
2022-12-28T19:14:15.838Z,18.23
2022-12-28T19:17:18.485Z,18.45
2022-12-28T19:20:20.518Z,18.60
2022-12-28T19:23:23.256Z,18.66
2022-12-28T19:26:25.895Z,18.08
2022-12-28T19:29:27.886Z,16.71
2022-12-28T19:32:31.085Z,16.10
2022-12-28T19:35:33.813Z,15.80
2022-12-28T19:38:36.991Z,15.79
2022-12-28T19:41:40.009Z,15.62
2022-12-28T19:44:43.945Z,15.49
2022-12-28T19:47:46.461Z,15.62
2022-12-28T19:50:48.540Z,15.61
2022-12-28T19:53:50.715Z,15.57
2022-12-28T19:56:53.233Z,15.37
2022-12-28T19:59:56.057Z,15.33
2022-12-28T20:02:58.422Z,15.27
2022-12-28T20:06:16.802Z,16.42
2022-12-28T20:09:18.958Z,16.75
2022-12-28T20:12:22.832Z,16.77
2022-12-28T20:15:25.061Z,16.57
2022-12-28T20:18:27.392Z,16.32
2022-12-28T20:21:29.746Z,16.16
2022-12-28T20:24:33.050Z,16.03
2022-12-28T20:27:35.254Z,15.79
2022-12-28T20:30:40.065Z,15.87
2022-12-28T20:33:44.031Z,15.73
2022-12-28T20:36:46.524Z,15.66
2022-12-28T20:39:49.685Z,15.65
2022-12-28T20:43:12.395Z,15.51
2022-12-28T20:46:14.617Z,15.49
2022-12-28T20:49:19.184Z,15.50
2022-12-28T20:52:21.221Z,15.49
2022-12-28T20:55:23.412Z,15.53
2022-12-28T20:58:25.508Z,15.44
2022-12-28T21:01:27.690Z,15.52
2022-12-28T21:04:30.802Z,15.47
2022-12-28T21:07:35.173Z,15.46
2022-12-28T21:10:37.420Z,15.40
2022-12-28T21:13:44.155Z,15.45
2022-12-28T21:16:47.851Z,15.46
2022-12-28T21:19:50.140Z,15.34
2022-12-28T21:22:52.401Z,15.39
2022-12-28T21:26:01.071Z,15.23
2022-12-28T21:29:03.184Z,15.31
2022-12-28T21:32:05.533Z,15.35
2022-12-28T21:35:08.206Z,15.51
2022-12-28T21:38:10.451Z,15.40
2022-12-28T21:41:41.788Z,15.28
2022-12-28T21:44:45.892Z,15.41
2022-12-28T21:47:47.975Z,15.40
2022-12-28T21:50:50.039Z,15.27
2022-12-28T21:53:52.533Z,15.48
2022-12-28T21:56:56.448Z,15.39
2022-12-28T22:00:01.028Z,15.44
2022-12-28T22:03:25.605Z,15.34
2022-12-28T22:06:35.554Z,15.23
2022-12-28T22:09:58.222Z,15.25
2022-12-28T22:13:00.415Z,15.26
2022-12-28T22:16:03.164Z,15.17
2022-12-28T22:19:05.724Z,14.97
2022-12-28T22:22:07.786Z,14.94
2022-12-28T22:25:11.319Z,14.92
2022-12-28T22:28:13.428Z,14.87
2022-12-28T22:31:16.561Z,14.73
2022-12-28T22:34:18.828Z,14.74
2022-12-28T22:37:20.982Z,14.75
2022-12-28T22:40:23.479Z,14.63
2022-12-28T22:43:25.801Z,14.61
2022-12-28T22:46:27.986Z,14.51
2022-12-28T22:49:30.548Z,14.56
2022-12-28T22:52:32.601Z,14.44
2022-12-28T22:55:34.624Z,14.38
2022-12-28T22:58:36.944Z,14.34
2022-12-28T23:01:39.757Z,14.33
2022-12-28T23:04:42.220Z,14.31
2022-12-28T23:07:44.387Z,14.19
2022-12-28T23:11:01.138Z,14.14
2022-12-28T23:14:31.873Z,13.95
2022-12-28T23:17:34.013Z,14.05
2022-12-28T23:20:59.840Z,13.98
2022-12-28T23:24:20.327Z,13.63
2022-12-28T23:27:22.486Z,13.76
2022-12-28T23:30:24.592Z,13.75
2022-12-28T23:33:26.664Z,13.67
2022-12-28T23:36:28.782Z,13.59
2022-12-28T23:39:30.963Z,13.51
2022-12-28T23:42:35.037Z,13.50
2022-12-28T23:45:38.702Z,13.49
2022-12-28T23:48:40.858Z,13.43
2022-12-28T23:51:47.322Z,13.26
2022-12-28T23:54:49.427Z,13.40
2022-12-28T23:57:51.465Z,13.38
